Time;durP1;ratioP1;P1;durP2;ratioP2;P2;SDS_P1;SDS_P2;PMS_P1;PMS_P2;Temp;Humidity;BMP_temperature;BMP_pressure;BME280_temperature;BME280_humidity;BME280_pressure;Samples;Min_cycle;Max_cycle;Signal;HPM_P1;HPM_P2
2022/12/12 00:00:05;;;;;;;35.05;17.17;;;;;;;;;;5053877;28;20076;-76
2022/12/12 00:02:31;;;;;;;35.60;16.38;;;;;;;;;;5054665;28;20071;-76
2022/12/12 00:04:57;;;;;;;38.67;17.95;;;;;;;;;;5054759;28;20066;-76
2022/12/12 00:07:23;;;;;;;37.38;17.75;;;;;;;;;;5054583;28;20120;-76
2022/12/12 00:09:49;;;;;;;34.10;17.20;;;;;;;;;;5025790;28;20041;-76
2022/12/12 00:12:15;;;;;;;38.03;18.42;;;;;;;;;;5054456;28;20063;-76
2022/12/12 00:14:41;;;;;;;35.17;17.40;;;;;;;;;;5054306;28;20101;-76
2022/12/12 00:17:07;;;;;;;31.70;18.08;;;;;;;;;;5054370;28;20404;-76
2022/12/12 00:19:33;;;;;;;34.70;16.23;;;;;;;;;;5054517;28;20485;-76
2022/12/12 00:21:59;;;;;;;35.58;17.17;;;;;;;;;;5036589;28;20499;-76
2022/12/12 00:24:25;;;;;;;36.22;16.90;;;;;;;;;;5048893;28;20047;-76
2022/12/12 00:26:51;;;;;;;30.73;15.98;;;;;;;;;;5051267;28;20041;-76
2022/12/12 00:29:17;;;;;;;30.42;15.60;;;;;;;;;;5054465;28;20037;-76
2022/12/12 00:31:43;;;;;;;33.45;16.52;;;;;;;;;;5054076;28;20366;-76
2022/12/12 00:34:09;;;;;;;37.53;17.10;;;;;;;;;;5054542;28;20045;-76
2022/12/12 00:36:36;;;;;;;36.03;16.40;;;;;;;;;;5053999;28;20389;-76
2022/12/12 00:39:02;;;;;;;34.22;16.08;;;;;;;;;;5036196;28;20041;-76
2022/12/12 00:41:28;;;;;;;32.50;15.80;;;;;;;;;;5053897;28;20551;-76
2022/12/12 00:43:54;;;;;;;36.53;15.85;;;;;;;;;;5053480;28;20048;-76
2022/12/12 00:46:21;;;;;;;30.13;15.52;;;;;;;;;;5054025;28;20120;-76
2022/12/12 00:48:47;;;;;;;34.92;16.77;;;;;;;;;;5019408;28;20056;-76
2022/12/12 00:51:16;;;;;;;31.98;16.48;;;;;;;;;;5054090;28;20056;-76
2022/12/12 00:53:42;;;;;;;35.20;16.33;;;;;;;;;;5052679;28;20041;-76
2022/12/12 00:56:08;;;;;;;32.92;15.95;;;;;;;;;;5053809;28;20040;-76
2022/12/12 00:58:34;;;;;;;34.50;15.07;;;;;;;;;;5053449;28;20037;-76
2022/12/12 01:01:05;;;;;;;37.22;16.25;;;;;;;;;;5053491;28;20045;-76
2022/12/12 01:03:34;;;;;;;37.92;16.77;;;;;;;;;;5053654;28;20059;-76
2022/12/12 01:06:00;;;;;;;33.80;15.45;;;;;;;;;;5053871;28;20052;-76
2022/12/12 01:08:26;;;;;;;36.22;17.30;;;;;;;;;;5053313;28;20454;-76
2022/12/12 01:10:52;;;;;;;30.73;14.73;;;;;;;;;;5053037;28;20061;-76
2022/12/12 01:13:18;;;;;;;28.80;14.70;;;;;;;;;;5053022;28;20120;-76
2022/12/12 01:15:44;;;;;;;35.83;16.60;;;;;;;;;;5036626;28;20045;-76
2022/12/12 01:18:10;;;;;;;31.30;14.70;;;;;;;;;;5046594;28;20045;-76
2022/12/12 01:20:36;;;;;;;33.55;15.38;;;;;;;;;;5053334;28;20504;-76
2022/12/12 01:23:03;;;;;;;32.63;15.98;;;;;;;;;;5035791;28;20497;-76
2022/12/12 01:25:29;;;;;;;30.13;15.52;;;;;;;;;;5053259;28;20052;-76
2022/12/12 01:27:55;;;;;;;30.80;15.73;;;;;;;;;;5035243;28;20076;-76
2022/12/12 01:30:21;;;;;;;33.25;16.30;;;;;;;;;;5053257;28;20052;-76
2022/12/12 01:32:48;;;;;;;34.22;15.52;;;;;;;;;;5053155;28;20507;-76
2022/12/12 01:35:14;;;;;;;32.45;15.80;;;;;;;;;;5053028;28;20500;-76
2022/12/12 01:37:40;;;;;;;29.95;14.90;;;;;;;;;;5053471;28;20427;-76
2022/12/12 01:40:08;;;;;;;30.58;15.90;;;;;;;;;;5052618;28;20084;-76
2022/12/12 01:42:34;;;;;;;30.80;14.48;;;;;;;;;;5053100;28;20044;-76
2022/12/12 01:45:00;;;;;;;30.30;16.27;;;;;;;;;;5052919;28;20037;-76
2022/12/12 01:47:27;;;;;;;33.28;15.80;;;;;;;;;;5055689;28;20037;-76
2022/12/12 01:49:59;;;;;;;32.25;15.55;;;;;;;;;;5038258;28;20109;-76
2022/12/12 01:52:30;;;;;;;29.20;14.40;;;;;;;;;;5035346;28;20128;-76
2022/12/12 01:54:59;;;;;;;32.20;15.93;;;;;;;;;;5033524;28;20045;-76
2022/12/12 01:57:34;;;;;;;28.60;14.27;;;;;;;;;;5033320;28;20042;-76
2022/12/12 02:00:01;;;;;;;32.00;15.65;;;;;;;;;;5050498;28;20045;-76
2022/12/12 02:02:28;;;;;;;33.65;15.65;;;;;;;;;;5052871;28;20071;-76
2022/12/12 02:04:54;;;;;;;30.20;15.55;;;;;;;;;;5053421;28;20515;-76
2022/12/12 02:07:20;;;;;;;35.25;15.85;;;;;;;;;;5052910;28;20041;-76
2022/12/12 02:09:47;;;;;;;32.80;15.30;;;;;;;;;;5047160;28;20041;-76
2022/12/12 02:12:14;;;;;;;33.65;15.80;;;;;;;;;;5032376;28;20060;-76
2022/12/12 02:14:42;;;;;;;36.33;15.73;;;;;;;;;;5049571;28;20049;-76
2022/12/12 02:17:27;;;;;;;34.92;16.05;;;;;;;;;;5053295;28;20051;-76
2022/12/12 02:20:13;;;;;;;31.27;16.42;;;;;;;;;;5052743;28;20056;-76
2022/12/12 02:22:57;;;;;;;34.53;15.85;;;;;;;;;;5043852;28;20053;-76
2022/12/12 02:25:37;;;;;;;37.15;16.73;;;;;;;;;;5056667;28;20469;-76
2022/12/12 02:28:23;;;;;;;30.88;15.70;;;;;;;;;;5056286;28;20057;-76
2022/12/12 02:30:54;;;;;;;35.40;16.10;;;;;;;;;;5036779;28;20061;-76
2022/12/12 02:33:33;;;;;;;33.25;16.05;;;;;;;;;;5036651;28;20041;-76
2022/12/12 02:36:02;;;;;;;33.97;17.10;;;;;;;;;;5036354;28;20041;-76
2022/12/12 02:38:28;;;;;;;36.75;16.95;;;;;;;;;;5058081;28;20119;-76
2022/12/12 02:41:14;;;;;;;34.50;16.98;;;;;;;;;;5038037;28;20382;-76
2022/12/12 02:43:44;;;;;;;33.35;15.07;;;;;;;;;;5056049;28;20037;-76
2022/12/12 02:46:17;;;;;;;37.58;17.33;;;;;;;;;;5056252;28;20041;-76
2022/12/12 02:49:01;;;;;;;35.97;16.48;;;;;;;;;;5055951;28;20049;-76
2022/12/12 02:51:28;;;;;;;36.53;17.33;;;;;;;;;;5056167;28;20041;-76
2022/12/12 02:53:54;;;;;;;38.65;17.13;;;;;;;;;;5056078;28;20044;-76
2022/12/12 02:56:39;;;;;;;37.95;15.82;;;;;;;;;;5056457;28;20098;-76
2022/12/12 02:59:05;;;;;;;31.42;16.02;;;;;;;;;;5056141;28;20045;-76
2022/12/12 03:01:50;;;;;;;38.40;16.85;;;;;;;;;;5055745;28;20075;-76
2022/12/12 03:10:15;;;;;;;34.60;16.63;;;;;;;;;;5055261;28;20068;-76
2022/12/12 03:13:07;;;;;;;31.60;15.93;;;;;;;;;;5055859;28;20041;-76
2022/12/12 03:15:39;;;;;;;35.40;16.85;;;;;;;;;;5032772;28;20128;-76
2022/12/12 03:18:25;;;;;;;36.55;16.67;;;;;;;;;;5055784;28;20119;-76
2022/12/12 03:21:15;;;;;;;37.28;16.35;;;;;;;;;;5037786;28;20398;-76
2022/12/12 03:23:44;;;;;;;36.42;15.75;;;;;;;;;;5037434;28;20052;-76
2022/12/12 03:26:16;;;;;;;35.05;16.55;;;;;;;;;;5035660;28;20068;-76
2022/12/12 03:28:52;;;;;;;32.20;16.45;;;;;;;;;;5054554;28;20079;-76
2022/12/12 03:31:20;;;;;;;36.05;16.55;;;;;;;;;;5037883;28;20075;-76
2022/12/12 03:33:50;;;;;;;31.60;14.93;;;;;;;;;;5054084;28;20041;-76
2022/12/12 03:36:23;;;;;;;37.70;17.02;;;;;;;;;;5035084;28;20473;-76
2022/12/12 03:38:56;;;;;;;34.42;16.60;;;;;;;;;;5055455;28;20449;-76
2022/12/12 03:41:24;;;;;;;28.17;14.88;;;;;;;;;;5054572;28;20087;-76
2022/12/12 03:43:54;;;;;;;35.17;16.02;;;;;;;;;;5055025;28;20041;-76
2022/12/12 03:46:23;;;;;;;35.67;16.52;;;;;;;;;;5055370;28;20064;-76
2022/12/12 03:48:54;;;;;;;33.63;16.65;;;;;;;;;;5054906;28;20118;-76
2022/12/12 03:51:31;;;;;;;34.45;16.58;;;;;;;;;;5036004;28;20179;-76
2022/12/12 03:54:07;;;;;;;30.35;14.98;;;;;;;;;;5055560;28;20045;-76
2022/12/12 03:56:33;;;;;;;32.93;16.50;;;;;;;;;;5055051;28;20495;-76
2022/12/12 03:59:11;;;;;;;29.73;14.50;;;;;;;;;;5054596;28;20041;-76
2022/12/12 04:01:41;;;;;;;29.88;14.82;;;;;;;;;;5037151;28;20052;-76
2022/12/12 04:04:07;;;;;;;29.23;14.77;;;;;;;;;;5054353;28;20044;-76
2022/12/12 04:06:39;;;;;;;29.15;14.65;;;;;;;;;;5047976;28;20041;-76
2022/12/12 04:14:58;;;;;;;33.88;16.45;;;;;;;;;;5044288;28;20041;-76
2022/12/12 04:17:31;;;;;;;33.38;15.00;;;;;;;;;;5037067;28;20055;-76
2022/12/12 04:28:56;;;;;;;35.47;16.30;;;;;;;;;;5053701;28;20465;-76
2022/12/12 04:31:24;;;;;;;32.33;15.68;;;;;;;;;;5054395;28;20049;-76
2022/12/12 04:33:52;;;;;;;36.78;17.42;;;;;;;;;;5054078;28;20399;-76
2022/12/12 04:36:20;;;;;;;34.78;16.48;;;;;;;;;;5032713;28;20084;-76
2022/12/12 04:38:47;;;;;;;34.45;16.92;;;;;;;;;;5034244;28;20450;-76
2022/12/12 04:41:14;;;;;;;33.33;15.40;;;;;;;;;;5033957;28;20065;-76
2022/12/12 04:43:42;;;;;;;30.42;15.20;;;;;;;;;;5034240;28;20469;-76
2022/12/12 04:46:12;;;;;;;31.55;15.32;;;;;;;;;;5033728;28;20112;-76
2022/12/12 04:48:40;;;;;;;35.47;16.27;;;;;;;;;;5034501;28;20041;-76
2022/12/12 04:51:08;;;;;;;35.90;15.95;;;;;;;;;;5044442;28;20052;-76
2022/12/12 04:53:37;;;;;;;34.08;15.85;;;;;;;;;;5059562;28;20041;-76
2022/12/12 04:56:06;;;;;;;35.30;15.45;;;;;;;;;;5054064;28;20048;-76
2022/12/12 04:58:33;;;;;;;35.85;16.50;;;;;;;;;;5036300;28;20049;-76
2022/12/12 05:01:01;;;;;;;34.55;14.57;;;;;;;;;;5053803;28;20083;-77
2022/12/12 05:03:35;;;;;;;33.10;15.68;;;;;;;;;;5053867;28;20037;-77
2022/12/12 05:06:06;;;;;;;31.27;15.98;;;;;;;;;;5035497;28;20047;-77
2022/12/12 05:08:34;;;;;;;33.85;15.35;;;;;;;;;;5053529;28;20175;-77
2022/12/12 05:11:01;;;;;;;31.80;15.32;;;;;;;;;;5053090;28;20166;-77
2022/12/12 05:13:29;;;;;;;40.03;16.80;;;;;;;;;;5053721;28;20089;-77
2022/12/12 05:15:57;;;;;;;39.63;17.75;;;;;;;;;;5053863;28;20048;-77
2022/12/12 05:18:23;;;;;;;34.40;18.63;;;;;;;;;;5053522;28;20056;-76
2022/12/12 05:20:49;;;;;;;42.08;18.58;;;;;;;;;;5053480;28;20422;-76
2022/12/12 05:23:19;;;;;;;39.22;18.05;;;;;;;;;;5035525;28;20053;-77
2022/12/12 05:25:45;;;;;;;39.85;17.40;;;;;;;;;;5052897;28;20033;-76
2022/12/12 05:28:11;;;;;;;36.92;19.15;;;;;;;;;;5053621;28;20052;-76
2022/12/12 05:30:37;;;;;;;38.70;18.48;;;;;;;;;;5053158;28;20048;-76
2022/12/12 05:33:03;;;;;;;44.08;19.02;;;;;;;;;;5035449;28;20048;-77
2022/12/12 05:35:29;;;;;;;40.00;17.88;;;;;;;;;;5052887;28;20048;-77
2022/12/12 05:37:55;;;;;;;33.67;15.73;;;;;;;;;;5035120;28;20048;-77
2022/12/12 05:40:22;;;;;;;38.50;17.23;;;;;;;;;;5025268;28;20555;-77
2022/12/12 05:42:48;;;;;;;34.78;16.02;;;;;;;;;;5026428;28;20072;-77
2022/12/12 05:45:14;;;;;;;35.75;16.70;;;;;;;;;;5052998;28;20401;-76
2022/12/12 05:47:40;;;;;;;33.47;15.65;;;;;;;;;;5053473;28;20120;-77
2022/12/12 05:50:06;;;;;;;37.60;17.52;;;;;;;;;;5053061;28;20037;-77
2022/12/12 05:52:32;;;;;;;34.00;15.23;;;;;;;;;;5052882;28;20048;-77
2022/12/12 05:54:58;;;;;;;33.97;15.38;;;;;;;;;;5042960;28;20077;-77
2022/12/12 05:57:25;;;;;;;36.65;16.05;;;;;;;;;;5054364;28;20044;-77
2022/12/12 05:59:51;;;;;;;34.28;16.90;;;;;;;;;;5057110;28;20060;-77
2022/12/12 06:02:17;;;;;;;36.35;16.20;;;;;;;;;;5056915;28;20049;-77
2022/12/12 06:04:43;;;;;;;32.83;16.20;;;;;;;;;;5056972;28;20041;-77
2022/12/12 06:07:09;;;;;;;31.42;15.50;;;;;;;;;;5056630;28;20049;-77
2022/12/12 06:09:35;;;;;;;33.20;16.33;;;;;;;;;;5056844;28;20068;-77
2022/12/12 06:12:01;;;;;;;30.88;15.32;;;;;;;;;;5056304;28;20115;-77
2022/12/12 06:14:27;;;;;;;34.67;16.75;;;;;;;;;;5056574;28;20049;-77
2022/12/12 06:16:54;;;;;;;37.28;17.05;;;;;;;;;;5056461;28;20044;-77
2022/12/12 06:19:20;;;;;;;34.20;15.65;;;;;;;;;;5068046;28;20174;-77
2022/12/12 06:21:47;;;;;;;34.38;16.73;;;;;;;;;;5076869;28;20080;-77
2022/12/12 06:24:13;;;;;;;38.72;17.60;;;;;;;;;;5062571;28;20154;-77
2022/12/12 06:26:39;;;;;;;36.45;16.38;;;;;;;;;;5056593;28;20051;-77
2022/12/12 06:29:05;;;;;;;33.13;16.30;;;;;;;;;;5056602;28;20040;-77
2022/12/12 06:31:32;;;;;;;35.25;17.33;;;;;;;;;;5056391;28;20489;-77
2022/12/12 06:33:58;;;;;;;41.47;17.98;;;;;;;;;;5049088;28;20068;-78
2022/12/12 06:36:24;;;;;;;36.08;17.23;;;;;;;;;;5057321;28;20033;-77
2022/12/12 06:38:55;;;;;;;36.83;18.15;;;;;;;;;;5055513;28;20401;-77
2022/12/12 06:41:22;;;;;;;35.83;16.38;;;;;;;;;;5021430;28;20489;-77
2022/12/12 06:43:49;;;;;;;34.17;17.02;;;;;;;;;;5056166;28;20509;-77
2022/12/12 06:46:16;;;;;;;34.58;17.75;;;;;;;;;;5056624;28;20047;-77
2022/12/12 06:48:43;;;;;;;32.70;16.60;;;;;;;;;;5022109;28;20055;-77
2022/12/12 06:51:10;;;;;;;34.63;16.65;;;;;;;;;;5055358;28;20481;-77
2022/12/12 06:53:36;;;;;;;38.58;17.73;;;;;;;;;;5055570;28;20389;-77
2022/12/12 06:56:29;;;;;;;34.47;16.20;;;;;;;;;;5038650;28;20045;-77
2022/12/12 06:58:55;;;;;;;30.98;15.20;;;;;;;;;;5054431;28;20053;-77
2022/12/12 07:01:22;;;;;;;38.67;18.60;;;;;;;;;;5056093;28;20535;-77
2022/12/12 07:03:49;;;;;;;34.97;17.95;;;;;;;;;;5055669;28;20449;-77
2022/12/12 07:06:15;;;;;;;39.58;18.50;;;;;;;;;;5032854;28;20045;-77
2022/12/12 07:08:42;;;;;;;37.13;18.10;;;;;;;;;;5045776;28;20489;-78
2022/12/12 07:11:10;;;;;;;40.35;18.35;;;;;;;;;;5056034;28;20064;-77
2022/12/12 07:13:37;;;;;;;36.80;18.48;;;;;;;;;;5055742;28;20052;-77
2022/12/12 07:16:06;;;;;;;34.53;17.10;;;;;;;;;;5056357;28;20492;-77
2022/12/12 07:18:32;;;;;;;34.15;16.52;;;;;;;;;;5055696;28;20071;-77
2022/12/12 07:20:58;;;;;;;31.15;16.15;;;;;;;;;;5055582;28;20400;-77
2022/12/12 07:23:24;;;;;;;30.30;16.23;;;;;;;;;;5054981;28;20500;-77
2022/12/12 07:25:50;;;;;;;28.20;15.13;;;;;;;;;;5055384;28;20401;-77
2022/12/12 07:28:17;;;;;;;29.73;15.40;;;;;;;;;;5055720;28;20468;-77
2022/12/12 07:30:45;;;;;;;34.42;15.50;;;;;;;;;;5055867;28;20056;-77
2022/12/12 07:33:12;;;;;;;30.17;14.60;;;;;;;;;;5037191;28;20366;-77
2022/12/12 07:35:38;;;;;;;30.00;14.65;;;;;;;;;;5055126;28;20087;-77
2022/12/12 07:38:05;;;;;;;30.02;14.55;;;;;;;;;;5055055;28;20110;-77
2022/12/12 07:40:31;;;;;;;28.30;14.65;;;;;;;;;;5035888;28;20073;-77
2022/12/12 07:42:58;;;;;;;26.70;13.80;;;;;;;;;;5055427;28;20040;-77
2022/12/12 07:45:24;;;;;;;26.20;14.13;;;;;;;;;;5055080;28;20048;-77
2022/12/12 07:47:50;;;;;;;32.38;15.30;;;;;;;;;;5054535;28;20041;-77
2022/12/12 07:50:16;;;;;;;26.70;14.82;;;;;;;;;;5054804;28;20436;-77
2022/12/12 07:52:43;;;;;;;29.00;14.00;;;;;;;;;;5054514;28;20456;-78
2022/12/12 07:55:09;;;;;;;27.77;14.13;;;;;;;;;;5054807;28;20086;-77
2022/12/12 07:57:35;;;;;;;26.80;14.02;;;;;;;;;;5060537;28;20051;-77
2022/12/12 08:00:02;;;;;;;28.40;14.60;;;;;;;;;;5060283;28;20059;-77
2022/12/12 08:02:28;;;;;;;25.13;13.75;;;;;;;;;;5035932;28;20049;-77
2022/12/12 08:04:54;;;;;;;26.90;14.52;;;;;;;;;;5036471;28;20478;-77
2022/12/12 08:07:20;;;;;;;27.77;13.88;;;;;;;;;;5054437;28;20120;-77
2022/12/12 08:09:46;;;;;;;27.27;13.55;;;;;;;;;;5054587;28;20041;-77
2022/12/12 08:12:12;;;;;;;25.70;13.55;;;;;;;;;;5054676;28;20053;-77
2022/12/12 08:14:38;;;;;;;29.65;15.27;;;;;;;;;;5054619;28;20045;-77
2022/12/12 08:17:04;;;;;;;28.95;15.05;;;;;;;;;;5054952;28;20053;-77
2022/12/12 08:19:30;;;;;;;30.25;14.85;;;;;;;;;;5053875;28;20083;-77
2022/12/12 08:21:56;;;;;;;28.63;14.20;;;;;;;;;;5054182;28;20041;-77
2022/12/12 08:24:22;;;;;;;24.00;14.07;;;;;;;;;;5054414;28;20067;-77
2022/12/12 08:26:49;;;;;;;28.58;14.95;;;;;;;;;;5055271;28;20060;-77
2022/12/12 08:29:15;;;;;;;28.73;15.23;;;;;;;;;;5038428;28;20041;-77
2022/12/12 08:31:41;;;;;;;28.20;14.50;;;;;;;;;;5052248;28;20044;-77
2022/12/12 08:34:08;;;;;;;31.25;15.30;;;;;;;;;;5054579;28;20045;-77
2022/12/12 08:36:35;;;;;;;30.27;14.55;;;;;;;;;;5054419;28;20041;-77
2022/12/12 08:39:08;;;;;;;26.77;14.68;;;;;;;;;;5036915;28;20049;-78
2022/12/12 08:41:35;;;;;;;27.13;13.93;;;;;;;;;;5054892;28;20540;-78
2022/12/12 08:44:01;;;;;;;27.77;14.02;;;;;;;;;;5054685;28;20049;-77
2022/12/12 08:46:27;;;;;;;24.70;13.30;;;;;;;;;;5055234;28;20048;-78
2022/12/12 08:48:53;;;;;;;24.83;13.52;;;;;;;;;;5054435;28;20575;-78
2022/12/12 08:51:20;;;;;;;27.13;13.25;;;;;;;;;;5054358;28;20051;-77
2022/12/12 08:53:47;;;;;;;25.73;12.77;;;;;;;;;;5055289;28;20427;-76
2022/12/12 08:56:13;;;;;;;29.55;15.82;;;;;;;;;;5053263;28;20111;-78
2022/12/12 08:58:39;;;;;;;28.05;14.95;;;;;;;;;;5054295;28;20071;-76
2022/12/12 09:01:10;;;;;;;25.70;14.40;;;;;;;;;;5052062;28;20116;-76
2022/12/12 09:03:36;;;;;;;31.30;16.33;;;;;;;;;;5054297;28;20045;-76
2022/12/12 09:06:02;;;;;;;35.88;16.17;;;;;;;;;;5053939;28;20048;-79
2022/12/12 09:08:28;;;;;;;29.80;15.38;;;;;;;;;;5050787;28;20053;-76
2022/12/12 09:10:54;;;;;;;29.95;15.13;;;;;;;;;;5049025;28;20122;-76
2022/12/12 09:13:20;;;;;;;28.55;15.05;;;;;;;;;;5009754;28;20056;-76
2022/12/12 09:15:49;;;;;;;27.52;15.20;;;;;;;;;;5053540;28;20095;-76
2022/12/12 09:18:15;;;;;;;29.63;15.85;;;;;;;;;;5051851;28;20044;-76
2022/12/12 09:20:41;;;;;;;28.40;13.60;;;;;;;;;;5064497;28;20041;-76
2022/12/12 09:23:08;;;;;;;27.75;14.82;;;;;;;;;;5048484;28;20043;-76
2022/12/12 09:25:34;;;;;;;26.75;14.73;;;;;;;;;;5034322;28;20045;-76
2022/12/12 09:28:01;;;;;;;26.10;14.73;;;;;;;;;;5036093;28;20045;-76
2022/12/12 09:30:27;;;;;;;26.75;15.23;;;;;;;;;;5035565;28;20375;-76
2022/12/12 09:32:53;;;;;;;30.70;14.32;;;;;;;;;;5034206;28;20067;-76
2022/12/12 09:35:19;;;;;;;23.27;13.25;;;;;;;;;;5067325;28;20107;-76
2022/12/12 09:37:45;;;;;;;26.00;13.95;;;;;;;;;;5039056;28;20057;-76
2022/12/12 09:40:17;;;;;;;30.00;15.63;;;;;;;;;;5040386;28;20437;-77
2022/12/12 09:42:47;;;;;;;26.17;13.65;;;;;;;;;;5051976;28;20045;-77
2022/12/12 09:45:15;;;;;;;26.65;14.13;;;;;;;;;;5046055;28;20111;-76
2022/12/12 09:47:44;;;;;;;25.77;13.35;;;;;;;;;;5050022;28;20049;-76
2022/12/12 09:50:16;;;;;;;25.58;13.57;;;;;;;;;;5046452;28;20049;-77
2022/12/12 09:52:43;;;;;;;25.10;14.05;;;;;;;;;;5043915;28;20037;-77
2022/12/12 09:55:28;;;;;;;26.77;14.25;;;;;;;;;;5048456;28;20092;-77
2022/12/12 09:58:00;;;;;;;26.42;14.05;;;;;;;;;;5047886;28;20037;-77
2022/12/12 10:00:26;;;;;;;22.65;13.25;;;;;;;;;;5046365;28;20069;-77
2022/12/12 10:02:52;;;;;;;24.83;13.02;;;;;;;;;;5049179;28;20057;-78
2022/12/12 10:05:18;;;;;;;24.55;13.65;;;;;;;;;;5046882;28;20619;-77
2022/12/12 10:07:57;;;;;;;23.15;13.20;;;;;;;;;;5052859;28;20125;-77
2022/12/12 10:10:29;;;;;;;25.33;13.02;;;;;;;;;;5050167;28;20056;-77
2022/12/12 10:12:57;;;;;;;27.02;15.30;;;;;;;;;;5038314;28;20065;-77
2022/12/12 10:15:23;;;;;;;26.08;13.73;;;;;;;;;;5051640;28;20068;-77
2022/12/12 10:17:49;;;;;;;30.23;13.63;;;;;;;;;;5052327;28;20041;-77
2022/12/12 10:20:23;;;;;;;25.17;14.02;;;;;;;;;;5051785;28;20036;-77
2022/12/12 10:22:52;;;;;;;28.52;13.82;;;;;;;;;;5033325;28;20041;-78
2022/12/12 10:25:37;;;;;;;26.98;14.63;;;;;;;;;;5052091;28;20041;-78
2022/12/12 10:28:11;;;;;;;26.40;14.15;;;;;;;;;;5071652;28;20392;-78
2022/12/12 10:30:46;;;;;;;24.10;14.18;;;;;;;;;;5060642;28;20061;-78
2022/12/12 10:33:15;;;;;;;26.65;14.32;;;;;;;;;;5046231;28;20380;-79
2022/12/12 10:35:41;;;;;;;27.02;13.75;;;;;;;;;;5033293;28;20041;-78
2022/12/12 10:38:24;;;;;;;26.90;14.55;;;;;;;;;;5015708;28;20048;-79
2022/12/12 10:40:57;;;;;;;25.58;13.30;;;;;;;;;;5051417;28;20037;-77
2022/12/12 10:43:44;;;;;;;26.77;14.05;;;;;;;;;;5052358;28;20107;-78
2022/12/12 10:46:10;;;;;;;24.75;13.30;;;;;;;;;;5046499;28;20110;-77
2022/12/12 10:48:36;;;;;;;26.98;13.77;;;;;;;;;;5056587;28;20106;-78
2022/12/12 10:51:10;;;;;;;26.60;15.10;;;;;;;;;;5056371;28;20129;-77
2022/12/12 10:53:37;;;;;;;28.80;15.20;;;;;;;;;;5056662;28;20052;-78
2022/12/12 10:56:22;;;;;;;25.67;14.77;;;;;;;;;;5056895;28;20450;-81
2022/12/12 10:58:55;;;;;;;26.52;14.07;;;;;;;;;;5045955;28;20376;-78
2022/12/12 11:01:25;;;;;;;25.20;14.75;;;;;;;;;;5050517;28;20045;-77
2022/12/12 11:03:52;;;;;;;26.08;14.23;;;;;;;;;;5056179;28;20070;-78
2022/12/12 11:06:20;;;;;;;26.55;14.45;;;;;;;;;;5049264;28;20068;-79
2022/12/12 11:08:57;;;;;;;29.40;15.13;;;;;;;;;;5060540;28;20082;-78
2022/12/12 11:11:24;;;;;;;30.38;15.93;;;;;;;;;;5043283;28;20492;-78
2022/12/12 11:13:59;;;;;;;26.83;14.35;;;;;;;;;;5049228;28;20041;-78
2022/12/12 11:16:25;;;;;;;26.58;14.02;;;;;;;;;;5054811;28;20059;-78
2022/12/12 11:18:59;;;;;;;28.25;15.02;;;;;;;;;;5055142;28;20049;-78
2022/12/12 11:21:25;;;;;;;29.23;14.75;;;;;;;;;;5037132;28;20044;-78
2022/12/12 11:23:53;;;;;;;27.48;14.40;;;;;;;;;;5051962;28;20065;-78
2022/12/12 11:26:20;;;;;;;25.52;13.85;;;;;;;;;;5032298;28;20120;-78
2022/12/12 11:28:59;;;;;;;26.13;14.38;;;;;;;;;;5050764;28;20061;-78
2022/12/12 11:31:27;;;;;;;29.20;14.63;;;;;;;;;;5055182;28;20041;-78
2022/12/12 11:33:55;;;;;;;30.85;15.20;;;;;;;;;;5055442;28;20049;-78
2022/12/12 11:36:27;;;;;;;26.63;14.70;;;;;;;;;;5055111;28;20045;-78
2022/12/12 11:38:54;;;;;;;28.70;15.45;;;;;;;;;;5054235;28;20082;-78
2022/12/12 11:41:21;;;;;;;23.40;13.55;;;;;;;;;;5051473;28;20492;-79
2022/12/12 11:43:47;;;;;;;25.23;14.27;;;;;;;;;;5052271;28;20048;-79
2022/12/12 11:46:13;;;;;;;24.60;14.02;;;;;;;;;;5055306;28;20049;-77
2022/12/12 11:48:39;;;;;;;25.35;14.70;;;;;;;;;;5054727;28;20408;-78
2022/12/12 11:51:05;;;;;;;29.95;15.40;;;;;;;;;;5037318;28;20053;-78
2022/12/12 11:53:36;;;;;;;24.75;14.35;;;;;;;;;;5055939;28;20067;-79
2022/12/12 11:56:02;;;;;;;24.75;14.02;;;;;;;;;;5054593;28;20045;-78
2022/12/12 11:58:42;;;;;;;24.80;13.73;;;;;;;;;;5054649;28;20072;-78
2022/12/12 12:01:08;;;;;;;25.10;14.32;;;;;;;;;;5035822;28;20046;-77
2022/12/12 12:03:50;;;;;;;24.88;14.38;;;;;;;;;;5047596;28;20831;-77
2022/12/12 12:06:35;;;;;;;25.83;14.93;;;;;;;;;;5048354;28;20053;-78
2022/12/12 12:09:14;;;;;;;24.70;13.93;;;;;;;;;;5041945;28;20393;-78
2022/12/12 12:11:55;;;;;;;28.88;15.27;;;;;;;;;;5053950;28;20092;-78
2022/12/12 12:14:35;;;;;;;27.50;15.73;;;;;;;;;;5053643;28;20074;-78
2022/12/12 12:17:06;;;;;;;26.58;14.75;;;;;;;;;;5053677;28;20469;-78
2022/12/12 12:19:45;;;;;;;24.98;14.00;;;;;;;;;;5016563;28;20052;-78
2022/12/12 12:22:34;;;;;;;29.42;14.73;;;;;;;;;;5033619;28;20037;-78
2022/12/12 12:25:19;;;;;;;26.42;14.43;;;;;;;;;;5046097;28;20041;-78
2022/12/12 12:27:57;;;;;;;22.83;14.15;;;;;;;;;;5035414;28;20124;-78
2022/12/12 12:30:24;;;;;;;27.33;14.82;;;;;;;;;;5053693;28;20477;-78
2022/12/12 12:33:30;;;;;;;27.27;15.40;;;;;;;;;;5036143;28;20068;-78
2022/12/12 12:36:06;;;;;;;28.40;15.02;;;;;;;;;;4992434;28;20605;-78
2022/12/12 12:39:01;;;;;;;27.67;15.07;;;;;;;;;;4966034;28;20507;-78
2022/12/12 12:41:27;;;;;;;25.02;14.32;;;;;;;;;;4969292;28;20051;-78
2022/12/12 12:43:58;;;;;;;26.38;15.32;;;;;;;;;;4986981;28;20074;-78
2022/12/12 12:46:30;;;;;;;25.02;15.45;;;;;;;;;;4992364;28;20100;-78
2022/12/12 12:49:00;;;;;;;23.40;13.73;;;;;;;;;;4990326;28;20053;-78
2022/12/12 12:51:29;;;;;;;26.92;14.50;;;;;;;;;;4999318;28;20038;-78
2022/12/12 12:54:13;;;;;;;24.45;14.15;;;;;;;;;;4992744;28;20410;-78
2022/12/12 12:56:49;;;;;;;24.45;14.65;;;;;;;;;;4992553;28;20065;-78
2022/12/12 12:59:20;;;;;;;25.48;14.40;;;;;;;;;;4992402;28;20046;-78
2022/12/12 13:01:49;;;;;;;24.08;13.52;;;;;;;;;;4992806;28;20046;-78
2022/12/12 13:04:21;;;;;;;21.38;12.70;;;;;;;;;;5006374;28;20050;-78
2022/12/12 13:06:50;;;;;;;21.98;13.73;;;;;;;;;;5035062;28;20056;-78
2022/12/12 13:09:28;;;;;;;24.92;13.15;;;;;;;;;;5053783;28;20049;-78
2022/12/12 13:11:59;;;;;;;23.17;12.55;;;;;;;;;;5052850;28;20049;-78
2022/12/12 13:14:34;;;;;;;20.52;11.82;;;;;;;;;;5054130;28;20098;-78
2022/12/12 13:17:05;;;;;;;21.70;12.60;;;;;;;;;;5053323;28;20037;-78
2022/12/12 13:19:37;;;;;;;22.77;13.32;;;;;;;;;;5038998;28;20045;-78
2022/12/12 13:22:19;;;;;;;21.45;13.43;;;;;;;;;;5052928;28;20492;-78
2022/12/12 13:25:04;;;;;;;23.88;13.98;;;;;;;;;;5051392;28;20041;-78
2022/12/12 13:27:34;;;;;;;18.83;12.20;;;;;;;;;;5045199;28;20041;-78
2022/12/12 13:30:18;;;;;;;23.17;13.07;;;;;;;;;;5043354;28;20045;-78
2022/12/12 13:32:47;;;;;;;22.15;12.60;;;;;;;;;;5054065;28;20044;-77
2022/12/12 13:35:15;;;;;;;23.13;13.35;;;;;;;;;;5036079;28;20079;-78
2022/12/12 13:37:46;;;;;;;20.38;11.95;;;;;;;;;;5035984;28;20123;-77
2022/12/12 13:40:23;;;;;;;21.70;12.75;;;;;;;;;;5053530;28;20041;-79
2022/12/12 13:42:58;;;;;;;22.17;13.88;;;;;;;;;;5031723;28;20041;-80
2022/12/12 13:45:34;;;;;;;22.63;12.50;;;;;;;;;;5043241;28;20122;-78
2022/12/12 13:48:01;;;;;;;24.48;13.40;;;;;;;;;;5046812;28;20120;-80
2022/12/12 13:50:27;;;;;;;22.73;13.40;;;;;;;;;;5043864;28;20090;-77
2022/12/12 13:53:05;;;;;;;21.50;12.52;;;;;;;;;;5043112;28;20493;-78
2022/12/12 13:55:32;;;;;;;22.42;13.38;;;;;;;;;;5050249;28;20045;-78
2022/12/12 13:57:58;;;;;;;22.05;13.00;;;;;;;;;;5046416;28;20120;-79
2022/12/12 14:00:28;;;;;;;21.27;13.32;;;;;;;;;;5053708;28;20049;-78
2022/12/12 14:03:00;;;;;;;20.15;12.70;;;;;;;;;;5052731;28;20080;-78
2022/12/12 14:05:28;;;;;;;22.80;13.82;;;;;;;;;;5052767;28;20053;-78
2022/12/12 14:08:01;;;;;;;22.27;13.70;;;;;;;;;;5053046;28;20128;-78
2022/12/12 14:10:32;;;;;;;21.45;13.82;;;;;;;;;;5053136;28;20409;-78
2022/12/12 14:13:14;;;;;;;23.77;13.50;;;;;;;;;;5040081;28;20057;-78
2022/12/12 14:15:41;;;;;;;21.35;13.48;;;;;;;;;;5043268;28;20500;-77
2022/12/12 14:18:17;;;;;;;23.05;13.75;;;;;;;;;;5053446;28;20518;-77
2022/12/12 14:20:43;;;;;;;22.38;12.73;;;;;;;;;;5063253;28;20051;-81
2022/12/12 14:23:12;;;;;;;21.75;11.95;;;;;;;;;;5062112;28;20048;-77
2022/12/12 14:25:40;;;;;;;25.17;13.70;;;;;;;;;;5057786;28;20073;-78
2022/12/12 14:28:12;;;;;;;23.40;13.35;;;;;;;;;;5054916;28;20473;-77
2022/12/12 14:31:11;;;;;;;22.55;13.45;;;;;;;;;;5056283;28;20045;-77
2022/12/12 14:33:57;;;;;;;24.15;12.65;;;;;;;;;;4993445;28;20173;-77
2022/12/12 14:36:38;;;;;;;24.80;14.25;;;;;;;;;;5033001;28;20158;-77
2022/12/12 14:39:14;;;;;;;19.67;12.30;;;;;;;;;;5056284;28;20045;-77
2022/12/12 14:41:41;;;;;;;19.50;12.38;;;;;;;;;;5055463;28;20037;-77
2022/12/12 14:44:20;;;;;;;21.25;12.90;;;;;;;;;;5056347;28;20044;-77
2022/12/12 14:46:47;;;;;;;19.50;12.02;;;;;;;;;;5056329;28;20338;-77
2022/12/12 14:49:17;;;;;;;22.50;13.02;;;;;;;;;;5056402;28;20072;-77
2022/12/12 14:51:44;;;;;;;23.10;14.02;;;;;;;;;;5056136;28;20041;-76